Time,TemperatureF,DewpointF,PressureIn,WindDirection,WindDirectionDegrees,WindSpeedMPH,WindSpeedGustMPH,Humidity,HourlyPrecipIn,Conditions,Clouds,dailyrainin,SoftwareType,DateUTC
2013-02-11 00:00:00,36.0,-99.9,30.37,SW,230,15.0,16.0,-999,-99.99,,,-99.99,,2013-02-11 05:00:00,
2013-02-11 00:22:00,36.0,-99.9,30.37,SW,230,15.0,16.0,-999,-99.99,,,-99.99,,2013-02-11 05:22:00,
2013-02-11 00:32:00,36.0,-99.9,30.37,SW,230,15.0,16.0,-999,-99.99,,,-99.99,,2013-02-11 05:32:00,
2013-02-11 00:42:00,36.0,-99.9,30.37,SW,230,15.0,16.0,-999,-99.99,,,-99.99,,2013-02-11 05:42:00,
2013-02-11 00:53:00,36.0,-99.9,30.37,SW,230,15.0,16.0,-999,-99.99,,,-99.99,,2013-02-11 05:53:00,
2013-02-11 01:00:00,36.0,-99.9,30.36,SW,230,14.0,15.0,-999,-99.99,,,-99.99,,2013-02-11 06:00:00,
2013-02-11 01:22:00,36.0,-99.9,30.36,SW,230,14.0,15.0,-999,-99.99,,,-99.99,,2013-02-11 06:22:00,
2013-02-11 01:32:00,36.0,-99.9,30.36,SW,230,14.0,15.0,-999,-99.99,,,-99.99,,2013-02-11 06:32:00,
2013-02-11 01:42:00,36.0,-99.9,30.36,SW,230,14.0,15.0,-999,-99.99,,,-99.99,,2013-02-11 06:42:00,
2013-02-11 01:52:00,36.0,-99.9,30.36,SW,230,14.0,15.0,-999,-99.99,,,-99.99,,2013-02-11 06:52:00,
2013-02-11 02:00:00,36.0,-99.9,30.34,SW,220,9.0,10.0,-999,-99.99,,,-99.99,,2013-02-11 07:00:00,
2013-02-11 02:22:00,36.0,-99.9,30.34,SW,220,9.0,10.0,-999,-99.99,,,-99.99,,2013-02-11 07:22:00,
2013-02-11 02:32:00,36.0,-99.9,30.34,SW,220,9.0,10.0,-999,-99.99,,,-99.99,,2013-02-11 07:32:00,
2013-02-11 02:42:00,36.0,-99.9,30.34,SW,220,9.0,10.0,-999,-99.99,,,-99.99,,2013-02-11 07:42:00,
2013-02-11 02:52:00,36.0,-99.9,30.34,SW,220,9.0,10.0,-999,-99.99,,,-99.99,,2013-02-11 07:52:00,
2013-02-11 04:00:00,37.0,-99.9,30.29,South,190,10.0,10.0,-999,-99.99,,,-99.99,,2013-02-11 09:00:00,
2013-02-11 04:22:00,37.0,-99.9,30.29,South,190,10.0,10.0,-999,-99.99,,,-99.99,,2013-02-11 09:22:00,
2013-02-11 04:32:00,37.0,-99.9,30.29,South,190,10.0,10.0,-999,-99.99,,,-99.99,,2013-02-11 09:32:00,
2013-02-11 04:42:00,37.0,-99.9,30.29,South,190,10.0,10.0,-999,-99.99,,,-99.99,,2013-02-11 09:42:00,
2013-02-11 04:52:00,37.0,-99.9,30.29,South,190,10.0,10.0,-999,-99.99,,,-99.99,,2013-02-11 09:52:00,
2013-02-11 06:00:00,38.0,-99.9,30.27,SSE,160,13.0,13.0,-999,-99.99,,,-99.99,,2013-02-11 11:00:00,
2013-02-11 06:22:00,38.0,-99.9,30.27,SSE,160,13.0,13.0,-999,-99.99,,,-99.99,,2013-02-11 11:22:00,
2013-02-11 06:32:00,38.0,-99.9,30.27,SSE,160,13.0,13.0,-999,-99.99,,,-99.99,,2013-02-11 11:32:00,
2013-02-11 06:42:00,38.0,-99.9,30.27,SSE,160,13.0,13.0,-999,-99.99,,,-99.99,,2013-02-11 11:42:00,
2013-02-11 06:52:00,38.0,-99.9,30.27,SSE,160,13.0,13.0,-999,-99.99,,,-99.99,,2013-02-11 11:52:00,
2013-02-11 07:00:00,37.0,-99.9,30.23,SE,140,17.0,17.0,-999,-99.99,,,-99.99,,2013-02-11 12:00:00,
2013-02-11 07:22:00,37.0,-99.9,30.23,SE,140,17.0,17.0,-999,-99.99,,,-99.99,,2013-02-11 12:22:00,
2013-02-11 07:32:00,37.0,-99.9,30.23,SE,140,17.0,17.0,-999,-99.99,,,-99.99,,2013-02-11 12:32:00,
2013-02-11 07:43:00,37.0,-99.9,30.23,SE,140,17.0,17.0,-999,-99.99,,,-99.99,,2013-02-11 12:43:00,
2013-02-11 07:52:00,37.0,-99.9,30.23,SE,140,17.0,17.0,-999,-99.99,,,-99.99,,2013-02-11 12:52:00,
2013-02-11 08:00:00,38.0,-99.9,30.21,SE,140,21.0,22.0,-999,-99.99,,,-99.99,,2013-02-11 13:00:00,
2013-02-11 08:22:00,38.0,-99.9,30.21,SE,140,21.0,22.0,-999,-99.99,,,-99.99,,2013-02-11 13:22:00,
2013-02-11 08:33:00,38.0,-99.9,30.21,SE,140,21.0,22.0,-999,-99.99,,,-99.99,,2013-02-11 13:33:00,
2013-02-11 08:42:00,38.0,-99.9,30.21,SE,140,21.0,22.0,-999,-99.99,,,-99.99,,2013-02-11 13:42:00,
2013-02-11 08:52:00,38.0,-99.9,30.21,SE,140,21.0,22.0,-999,-99.99,,,-99.99,,2013-02-11 13:52:00,
2013-02-11 09:00:00,39.0,-99.9,30.15,SE,130,25.0,28.0,-999,-99.99,,,-99.99,,2013-02-11 14:00:00,
2013-02-11 09:22:00,39.0,-99.9,30.15,SE,130,25.0,28.0,-999,-99.99,,,-99.99,,2013-02-11 14:22:00,
2013-02-11 09:33:00,39.0,-99.9,30.15,SE,130,25.0,28.0,-999,-99.99,,,-99.99,,2013-02-11 14:33:00,
2013-02-11 09:42:00,39.0,-99.9,30.15,SE,130,25.0,28.0,-999,-99.99,,,-99.99,,2013-02-11 14:42:00,
2013-02-11 09:53:00,39.0,-99.9,30.15,SE,130,25.0,28.0,-999,-99.99,,,-99.99,,2013-02-11 14:53:00,
2013-02-11 10:00:00,39.0,-99.9,30.08,SE,130,28.0,30.0,-999,-99.99,,,-99.99,,2013-02-11 15:00:00,
2013-02-11 10:22:00,39.0,-99.9,30.08,SE,130,28.0,30.0,-999,-99.99,,,-99.99,,2013-02-11 15:22:00,
2013-02-11 10:32:00,39.0,-99.9,30.08,SE,130,28.0,30.0,-999,-99.99,,,-99.99,,2013-02-11 15:32:00,
2013-02-11 10:42:00,39.0,-99.9,30.08,SE,130,28.0,30.0,-999,-99.99,,,-99.99,,2013-02-11 15:42:00,
2013-02-11 10:52:00,39.0,-99.9,30.08,SE,130,28.0,30.0,-999,-99.99,,,-99.99,,2013-02-11 15:52:00,
2013-02-11 11:00:00,42.0,-99.9,30.02,SSE,150,30.0,33.0,-999,-99.99,,,-99.99,,2013-02-11 16:00:00,
2013-02-11 11:22:00,42.0,-99.9,30.02,SSE,150,30.0,33.0,-999,-99.99,,,-99.99,,2013-02-11 16:22:00,
2013-02-11 11:32:00,42.0,-99.9,30.02,SSE,150,30.0,33.0,-999,-99.99,,,-99.99,,2013-02-11 16:32:00,
2013-02-11 11:43:00,42.0,-99.9,30.02,SSE,150,30.0,33.0,-999,-99.99,,,-99.99,,2013-02-11 16:43:00,
2013-02-11 11:53:00,42.0,-99.9,30.02,SSE,150,30.0,33.0,-999,-99.99,,,-99.99,,2013-02-11 16:53:00,
2013-02-11 12:00:00,42.0,-99.9,29.95,SSE,160,31.0,33.0,-999,-99.99,,,-99.99,,2013-02-11 17:00:00,
2013-02-11 12:22:00,42.0,-99.9,29.95,SSE,160,31.0,33.0,-999,-99.99,,,-99.99,,2013-02-11 17:22:00,
2013-02-11 12:32:00,42.0,-99.9,29.95,SSE,160,31.0,33.0,-999,-99.99,,,-99.99,,2013-02-11 17:32:00,
2013-02-11 12:42:00,42.0,-99.9,29.95,SSE,160,31.0,33.0,-999,-99.99,,,-99.99,,2013-02-11 17:42:00,
2013-02-11 12:53:00,42.0,-99.9,29.95,SSE,160,31.0,33.0,-999,-99.99,,,-99.99,,2013-02-11 17:53:00,
2013-02-11 13:00:00,43.0,-99.9,29.89,SSE,160,30.0,32.0,-999,-99.99,,,-99.99,,2013-02-11 18:00:00,
2013-02-11 13:22:00,43.0,-99.9,29.89,SSE,160,30.0,32.0,-999,-99.99,,,-99.99,,2013-02-11 18:22:00,
2013-02-11 13:32:00,43.0,-99.9,29.89,SSE,160,30.0,32.0,-999,-99.99,,,-99.99,,2013-02-11 18:32:00,
2013-02-11 13:42:00,43.0,-99.9,29.89,SSE,160,30.0,32.0,-999,-99.99,,,-99.99,,2013-02-11 18:42:00,
2013-02-11 13:54:00,43.0,-99.9,29.89,SSE,160,30.0,32.0,-999,-99.99,,,-99.99,,2013-02-11 18:54:00,
2013-02-11 14:00:00,45.0,-99.9,29.83,South,170,31.0,32.0,-999,-99.99,,,-99.99,,2013-02-11 19:00:00,
2013-02-11 14:22:00,45.0,-99.9,29.83,South,170,31.0,32.0,-999,-99.99,,,-99.99,,2013-02-11 19:22:00,
2013-02-11 14:32:00,45.0,-99.9,29.83,South,170,31.0,32.0,-999,-99.99,,,-99.99,,2013-02-11 19:32:00,
2013-02-11 14:42:00,45.0,-99.9,29.83,South,170,31.0,32.0,-999,-99.99,,,-99.99,,2013-02-11 19:42:00,
2013-02-11 14:52:00,45.0,-99.9,29.83,South,170,31.0,32.0,-999,-99.99,,,-99.99,,2013-02-11 19:52:00,
2013-02-11 15:00:00,46.0,-99.9,29.79,South,180,31.0,33.0,-999,-99.99,,,-99.99,,2013-02-11 20:00:00,
2013-02-11 15:22:00,46.0,-99.9,29.79,South,180,31.0,33.0,-999,-99.99,,,-99.99,,2013-02-11 20:22:00,
2013-02-11 15:32:00,46.0,-99.9,29.79,South,180,31.0,33.0,-999,-99.99,,,-99.99,,2013-02-11 20:32:00,
2013-02-11 15:42:00,46.0,-99.9,29.79,South,180,31.0,33.0,-999,-99.99,,,-99.99,,2013-02-11 20:42:00,
2013-02-11 15:52:00,46.0,-99.9,29.79,South,180,31.0,33.0,-999,-99.99,,,-99.99,,2013-02-11 20:52:00,
2013-02-11 16:00:00,47.0,-99.9,29.76,South,190,30.0,34.0,-999,-99.99,,,-99.99,,2013-02-11 21:00:00,
2013-02-11 16:22:00,47.0,-99.9,29.76,South,190,30.0,34.0,-999,-99.99,,,-99.99,,2013-02-11 21:22:00,
2013-02-11 16:32:00,47.0,-99.9,29.76,South,190,30.0,34.0,-999,-99.99,,,-99.99,,2013-02-11 21:32:00,
2013-02-11 16:42:00,47.0,-99.9,29.76,South,190,30.0,34.0,-999,-99.99,,,-99.99,,2013-02-11 21:42:00,
2013-02-11 16:52:00,47.0,-99.9,29.76,South,190,30.0,34.0,-999,-99.99,,,-99.99,,2013-02-11 21:52:00,
2013-02-11 17:00:00,45.0,-99.9,29.75,SSW,210,16.0,16.0,-999,-99.99,,,-99.99,,2013-02-11 22:00:00,
2013-02-11 17:22:00,45.0,-99.9,29.75,SSW,210,16.0,16.0,-999,-99.99,,,-99.99,,2013-02-11 22:22:00,
2013-02-11 17:32:00,45.0,-99.9,29.75,SSW,210,16.0,16.0,-999,-99.99,,,-99.99,,2013-02-11 22:32:00,
2013-02-11 17:42:00,45.0,-99.9,29.75,SSW,210,16.0,16.0,-999,-99.99,,,-99.99,,2013-02-11 22:42:00,
2013-02-11 17:53:00,45.0,-99.9,29.75,SSW,210,16.0,16.0,-999,-99.99,,,-99.99,,2013-02-11 22:53:00,
2013-02-11 18:00:00,45.0,-99.9,29.72,SSW,210,18.0,18.0,-999,-99.99,,,-99.99,,2013-02-11 23:00:00,
2013-02-11 18:22:00,45.0,-99.9,29.72,SSW,210,18.0,18.0,-999,-99.99,,,-99.99,,2013-02-11 23:22:00,
2013-02-11 18:32:00,45.0,-99.9,29.72,SSW,210,18.0,18.0,-999,-99.99,,,-99.99,,2013-02-11 23:32:00,
2013-02-11 18:42:00,45.0,-99.9,29.72,SSW,210,18.0,18.0,-999,-99.99,,,-99.99,,2013-02-11 23:42:00,
2013-02-11 18:53:00,45.0,-99.9,29.72,SSW,210,18.0,18.0,-999,-99.99,,,-99.99,,2013-02-11 23:53:00,
2013-02-11 19:00:00,45.0,-99.9,29.71,SW,220,16.0,17.0,-999,-99.99,,,-99.99,,2013-02-12 00:00:00,
2013-02-11 19:22:00,45.0,-99.9,29.71,SW,220,16.0,17.0,-999,-99.99,,,-99.99,,2013-02-12 00:22:00,
2013-02-11 19:32:00,45.0,-99.9,29.71,SW,220,16.0,17.0,-999,-99.99,,,-99.99,,2013-02-12 00:32:00,
2013-02-11 19:43:00,45.0,-99.9,29.71,SW,220,16.0,17.0,-999,-99.99,,,-99.99,,2013-02-12 00:43:00,
2013-02-11 19:52:00,45.0,-99.9,29.71,SW,220,16.0,17.0,-999,-99.99,,,-99.99,,2013-02-12 00:52:00,
2013-02-11 20:00:00,44.0,-99.9,29.69,SW,220,14.0,15.0,-999,-99.99,,,-99.99,,2013-02-12 01:00:00,
2013-02-11 20:22:00,44.0,-99.9,29.69,SW,220,14.0,15.0,-999,-99.99,,,-99.99,,2013-02-12 01:22:00,
2013-02-11 20:32:00,44.0,-99.9,29.69,SW,220,14.0,15.0,-999,-99.99,,,-99.99,,2013-02-12 01:32:00,
2013-02-11 20:42:00,44.0,-99.9,29.69,SW,220,14.0,15.0,-999,-99.99,,,-99.99,,2013-02-12 01:42:00,
2013-02-11 20:52:00,44.0,-99.9,29.69,SW,220,14.0,15.0,-999,-99.99,,,-99.99,,2013-02-12 01:52:00,
2013-02-11 21:00:00,43.0,-99.9,29.67,SW,220,15.0,15.0,-999,-99.99,,,-99.99,,2013-02-12 02:00:00,
2013-02-11 21:22:00,43.0,-99.9,29.67,SW,220,15.0,15.0,-999,-99.99,,,-99.99,,2013-02-12 02:22:00,
2013-02-11 21:32:00,43.0,-99.9,29.67,SW,220,15.0,15.0,-999,-99.99,,,-99.99,,2013-02-12 02:32:00,
2013-02-11 21:42:00,43.0,-99.9,29.67,SW,220,15.0,15.0,-999,-99.99,,,-99.99,,2013-02-12 02:42:00,
2013-02-11 21:53:00,43.0,-99.9,29.67,SW,220,15.0,15.0,-999,-99.99,,,-99.99,,2013-02-12 02:53:00,
2013-02-11 22:00:00,44.0,-99.9,29.64,SW,220,16.0,16.0,-999,-99.99,,,-99.99,,2013-02-12 03:00:00,
2013-02-11 22:21:00,44.0,-99.9,29.64,SW,220,16.0,16.0,-999,-99.99,,,-99.99,,2013-02-12 03:21:00,
2013-02-11 22:32:00,44.0,-99.9,29.64,SW,220,16.0,16.0,-999,-99.99,,,-99.99,,2013-02-12 03:32:00,
2013-02-11 22:42:00,44.0,-99.9,29.64,SW,220,16.0,16.0,-999,-99.99,,,-99.99,,2013-02-12 03:42:00,
2013-02-11 22:52:00,44.0,-99.9,29.64,SW,220,16.0,16.0,-999,-99.99,,,-99.99,,2013-02-12 03:52:00,
2013-02-11 23:00:00,44.0,-99.9,29.63,SW,220,16.0,16.0,-999,-99.99,,,-99.99,,2013-02-12 04:00:00,
2013-02-11 23:22:00,44.0,-99.9,29.63,SW,220,16.0,16.0,-999,-99.99,,,-99.99,,2013-02-12 04:22:00,
2013-02-11 23:32:00,44.0,-99.9,29.63,SW,220,16.0,16.0,-999,-99.99,,,-99.99,,2013-02-12 04:32:00,
2013-02-11 23:42:00,44.0,-99.9,29.63,SW,220,16.0,16.0,-999,-99.99,,,-99.99,,2013-02-12 04:42:00,
2013-02-11 23:52:00,44.0,-99.9,29.63,SW,220,16.0,16.0,-999,-99.99,,,-99.99,,2013-02-12 04:52:00,